Terminal Aerodrome Forecast
Issued by NWS

Home | Current Version | Previous Version | Text Only | Print | Product List | Glossary On
Versions: 1 2 3 4 5 6 7 8 9 10 11 12 13 14 15 16 17 18 19 20 21 22 23 24 25 26 27 28 29
000
FTPQ31 PGUM 012013 AAU
TAFTKK
TAF AMD

TAF AMD
PKWA 012013Z 0120/0218 07014KT 6SM -RA VCTS SCT016CB BKN040 OVC100
      TEMPO 0120/0124 08015G25KT 3SM +SHRA BKN014 OVC025
     FM020200 07012KT P6SM VCSH SCT016 BKN060 OVC120=

USA.gov is the U.S. government's official web portal to all federal, state and local government web resources and services.